ラパス の空港の天気 - METARとTAF

エル・アルト国際空港 ( SLLP / LPB ) - ボリビア ラパス
飛行場実況気象(Metar)
観測時間01/29 03:00 BOT (01/29 07:00 UTC)
風向・風速南南西 3m/s
視程4000m
天気現象周辺で霧
少しの雲 雲底高度 60m
全天の4割程度の雲 雲底高度 370m
全天の8割程度の雲 雲底高度 6100m
気温6℃
湿度93%
気圧1034hPa
METARSLLP 290700Z 20006KT 4000E VCFG FEW002 SCT012 BKN200 06/05 Q1034
過去の天気等 Google飛行場航空写真 Wunderground天気予報

過去48時間のMETAR

飛行場予報(TAF)
発表時間: 1/29 00:00 BOT (1/29 04:00 UTC)
予報対象時間: 29日2時 BOT ~ 30日2時 BOT
風向・風速南西 3m/s
29日8時 BOT ~ 29日10時 BOT に徐々に
風向・風速東南東 3m/s
視程10km以上
天気現象運行に影響にある天気現象が終了
全天の4割程度の雲 雲底高度 460m
全天の8割程度の雲 雲底高度 2130m
29日13時 BOT ~ 29日16時 BOT に一時的に
風向・風速北北西 5m/s
視程5000m
天気現象雷雨
少しの積乱雲 雲底高度 610m
29日23時 BOT ~ 30日1時 BOT に徐々に
TAF SLLP 290400Z 2906/3006 23005KT 3000E -RA VCFG FEW002 BKN013 OVC070 TX15/2919Z TN04/2910Z
BECMG 2912/2914 11006KT 9999 NSW SCT015 BKN070
TEMPO 2917/2920 34010KT 5000 TSRA FEW020CB
BECMG 3003/3005 3000E VCFG FEW002 BKN012